Time,TemperatureF,DewpointF,PressureIn,WindDirection,WindDirectionDegrees,WindSpeedMPH,WindSpeedGustMPH,Humidity,HourlyPrecipIn,Conditions,Clouds,dailyrainin,SoftwareType,DateUTC
2013-03-17 00:00:00,29.8,16.5,29.06,NE,56,0.0,0.0,57,0.00,,---,0.00,VWS V14.01,2013-03-17 04:00:00,
2013-03-17 00:01:00,29.8,16.5,29.06,NE,56,0.0,0.0,57,0.00,,---,0.00,VWS V14.01,2013-03-17 04:01:00,
2013-03-17 00:03:00,29.8,16.5,29.06,NE,56,0.0,0.0,57,0.00,,---,0.00,VWS V14.01,2013-03-17 04:03:00,
2013-03-17 00:09:00,29.8,16.5,29.06,NE,55,0.0,0.0,57,0.00,,---,0.00,VWS V14.01,2013-03-17 04:09:00,
2013-03-17 00:14:00,29.8,16.5,29.06,NE,56,0.0,0.0,57,0.00,,---,0.00,VWS V14.01,2013-03-17 04:14:00,
2013-03-17 00:19:00,30.0,17.0,29.06,NE,56,0.0,0.0,58,0.00,,---,0.00,VWS V14.01,2013-03-17 04:19:00,
2013-03-17 00:24:00,29.8,16.9,29.06,NE,56,0.0,0.0,58,0.00,,---,0.00,VWS V14.01,2013-03-17 04:24:00,
2013-03-17 00:29:00,30.0,17.0,29.06,NE,56,0.0,0.0,58,0.00,,---,0.00,VWS V14.01,2013-03-17 04:29:00,
2013-03-17 00:34:00,30.0,17.0,29.06,NE,56,0.0,0.0,58,0.00,,---,0.00,VWS V14.01,2013-03-17 04:34:00,
2013-03-17 00:40:00,30.2,17.6,29.06,NE,56,0.0,0.0,59,0.00,,---,0.00,VWS V14.01,2013-03-17 04:40:00,
2013-03-17 00:45:00,30.2,18.0,29.06,NE,56,0.0,0.0,60,0.00,,---,0.00,VWS V14.01,2013-03-17 04:45:00,
2013-03-17 00:50:00,30.2,18.0,29.06,NE,56,0.0,0.0,60,0.00,,---,0.00,VWS V14.01,2013-03-17 04:50:00,
2013-03-17 00:55:00,30.2,18.0,29.06,NE,56,0.0,0.0,60,0.00,,---,0.00,VWS V14.01,2013-03-17 04:55:00,
2013-03-17 01:00:00,30.2,18.0,29.06,NE,56,0.0,0.0,60,0.00,,---,0.00,VWS V14.01,2013-03-17 05:00:00,
2013-03-17 01:05:00,30.0,17.8,29.06,NE,56,0.0,0.0,60,0.00,,---,0.00,VWS V14.01,2013-03-17 05:05:00,
2013-03-17 01:10:00,30.0,17.8,29.06,NE,56,0.0,0.0,60,0.00,,---,0.00,VWS V14.01,2013-03-17 05:10:00,
2013-03-17 01:15:00,30.0,17.8,29.06,NE,56,0.0,0.0,60,0.00,,---,0.00,VWS V14.01,2013-03-17 05:15:00,
2013-03-17 01:20:00,29.8,17.7,29.06,NE,56,0.0,0.0,60,0.00,,---,0.00,VWS V14.01,2013-03-17 05:20:00,
2013-03-17 01:25:00,29.7,17.5,29.06,NE,56,0.0,0.0,60,0.00,,---,0.00,VWS V14.01,2013-03-17 05:25:00,
2013-03-17 01:30:00,29.5,17.3,29.06,NE,55,0.0,0.0,60,0.00,,---,0.00,VWS V14.01,2013-03-17 05:30:00,
2013-03-17 01:35:00,29.1,17.0,29.06,NE,56,0.0,0.0,60,0.00,,---,0.00,VWS V14.01,2013-03-17 05:35:00,
2013-03-17 01:40:00,29.1,17.0,29.06,NE,56,0.0,0.0,60,0.00,,---,0.00,VWS V14.01,2013-03-17 05:40:00,
2013-03-17 01:45:00,29.1,17.0,29.06,NE,56,0.0,0.0,60,0.00,,---,0.00,VWS V14.01,2013-03-17 05:45:00,
2013-03-17 01:50:00,28.9,16.8,29.06,NE,56,0.0,0.0,60,0.00,,---,0.00,VWS V14.01,2013-03-17 05:50:00,
2013-03-17 01:55:00,28.8,16.6,29.06,NE,56,0.0,0.0,60,0.00,,---,0.00,VWS V14.01,2013-03-17 05:55:00,
2013-03-17 02:00:00,28.8,16.6,29.06,NE,56,0.0,0.0,60,0.00,,---,0.00,VWS V14.01,2013-03-17 06:00:00,
2013-03-17 02:05:00,28.6,16.5,29.06,NE,56,0.0,0.0,60,0.00,,---,0.00,VWS V14.01,2013-03-17 06:05:00,
2013-03-17 02:10:00,28.6,16.5,29.06,NE,56,0.0,0.0,60,0.00,,---,0.00,VWS V14.01,2013-03-17 06:10:00,
2013-03-17 02:15:00,28.6,16.5,29.06,NE,56,0.0,0.0,60,0.00,,---,0.00,VWS V14.01,2013-03-17 06:15:00,
2013-03-17 02:20:00,28.8,16.6,29.06,NE,56,0.0,0.0,60,0.00,,---,0.00,VWS V14.01,2013-03-17 06:20:00,
2013-03-17 02:25:00,28.8,17.0,29.06,NE,56,0.0,0.0,61,0.00,,---,0.00,VWS V14.01,2013-03-17 06:25:00,
2013-03-17 02:31:00,28.9,17.2,29.06,NE,56,0.0,0.0,61,0.00,,---,0.00,VWS V14.01,2013-03-17 06:31:00,
2013-03-17 02:36:00,28.9,17.2,29.06,NE,55,0.0,0.0,61,0.00,,---,0.00,VWS V14.01,2013-03-17 06:36:00,
2013-03-17 02:41:00,29.1,17.4,29.06,NE,56,0.0,0.0,61,0.00,,---,0.00,VWS V14.01,2013-03-17 06:41:00,
2013-03-17 02:46:00,29.1,17.4,29.06,NE,56,0.0,0.0,61,0.00,,---,0.00,VWS V14.01,2013-03-17 06:46:00,
2013-03-17 02:51:00,29.1,17.4,29.06,NE,56,0.0,0.0,61,0.00,,---,0.00,VWS V14.01,2013-03-17 06:51:00,
2013-03-17 02:56:00,29.5,18.1,29.06,NE,56,0.0,0.0,62,0.00,,---,0.00,VWS V14.01,2013-03-17 06:56:00,
2013-03-17 03:01:00,29.7,18.6,29.06,NE,56,0.0,0.0,63,0.00,,---,0.00,VWS V14.01,2013-03-17 07:01:00,
2013-03-17 03:06:00,29.7,18.6,29.06,NE,56,0.0,0.0,63,0.00,,---,0.00,VWS V14.01,2013-03-17 07:06:00,
2013-03-17 03:07:00,29.7,19.0,29.06,NE,56,0.0,0.0,64,0.00,,---,0.00,VWS V14.01,2013-03-17 07:07:00,
2013-03-17 03:12:00,29.7,19.0,29.06,NE,56,0.0,0.0,64,0.00,,---,0.00,VWS V14.01,2013-03-17 07:12:00,
2013-03-17 03:17:00,29.7,19.0,29.09,NE,56,0.0,0.0,64,0.00,,---,0.00,VWS V14.01,2013-03-17 07:17:00,
2013-03-17 03:22:00,29.7,19.0,29.09,NE,56,0.0,0.0,64,0.00,,---,0.00,VWS V14.01,2013-03-17 07:22:00,
2013-03-17 03:27:00,29.5,18.1,29.09,NE,56,0.0,0.0,62,0.00,,---,0.00,VWS V14.01,2013-03-17 07:27:00,
2013-03-17 03:32:00,29.7,17.5,29.09,NE,56,0.0,0.0,60,0.00,,---,0.00,VWS V14.01,2013-03-17 07:32:00,
2013-03-17 03:37:00,29.7,16.3,29.09,North,6,0.0,0.0,57,0.00,,---,0.00,VWS V14.01,2013-03-17 07:37:00,
2013-03-17 03:43:00,29.7,15.9,29.09,North,6,2.7,4.5,56,0.00,,---,0.00,VWS V14.01,2013-03-17 07:43:00,
2013-03-17 03:48:00,29.7,15.9,29.09,North,6,4.0,4.5,56,0.00,,---,0.00,VWS V14.01,2013-03-17 07:48:00,
2013-03-17 03:53:00,29.7,15.5,29.09,North,6,3.6,4.5,55,0.00,,---,0.00,VWS V14.01,2013-03-17 07:53:00,
2013-03-17 03:58:00,29.7,15.5,29.09,ENE,74,0.0,0.0,55,0.00,,---,0.00,VWS V14.01,2013-03-17 07:58:00,
2013-03-17 04:04:00,29.5,15.3,29.06,NNE,33,0.0,3.1,55,0.00,,---,0.00,VWS V14.01,2013-03-17 08:04:00,
2013-03-17 04:09:00,29.5,15.3,29.06,NNE,33,0.0,0.0,55,0.00,,---,0.00,VWS V14.01,2013-03-17 08:09:00,
2013-03-17 04:14:00,29.3,13.9,29.06,North,10,0.0,0.0,52,0.00,,---,0.00,VWS V14.01,2013-03-17 08:14:00,
2013-03-17 04:19:00,28.9,11.2,29.09,North,351,3.1,4.5,47,0.00,,---,0.00,VWS V14.01,2013-03-17 08:19:00,
2013-03-17 04:24:00,28.9,9.8,29.09,NNW,347,3.6,4.0,44,0.00,,---,0.00,VWS V14.01,2013-03-17 08:24:00,
2013-03-17 04:29:00,28.9,9.3,29.09,NNW,347,4.5,4.9,43,0.00,,---,0.00,VWS V14.01,2013-03-17 08:29:00,
2013-03-17 04:34:00,28.9,9.3,29.09,North,5,2.7,3.1,43,0.00,,---,0.00,VWS V14.01,2013-03-17 08:34:00,
2013-03-17 04:39:00,28.9,9.3,29.09,North,5,0.0,3.6,43,0.00,,---,0.00,VWS V14.01,2013-03-17 08:39:00,
2013-03-17 04:45:00,28.8,9.1,29.09,North,351,4.9,4.9,43,0.00,,---,0.00,VWS V14.01,2013-03-17 08:45:00,
2013-03-17 04:50:00,28.4,8.2,29.09,North,351,3.6,4.5,42,0.00,,---,0.00,VWS V14.01,2013-03-17 08:50:00,
2013-03-17 04:55:00,28.4,7.7,29.09,North,351,0.0,0.0,41,0.00,,---,0.00,VWS V14.01,2013-03-17 08:55:00,
2013-03-17 05:00:00,28.2,7.6,29.09,North,351,0.0,0.0,41,0.00,,---,0.00,VWS V14.01,2013-03-17 09:00:00,
2013-03-17 05:05:00,28.0,7.4,29.09,North,351,0.0,4.5,41,0.00,,---,0.00,VWS V14.01,2013-03-17 09:05:00,
2013-03-17 05:10:00,28.0,5.7,29.09,North,351,3.6,4.9,38,0.00,,---,0.00,VWS V14.01,2013-03-17 09:10:00,
2013-03-17 05:15:00,28.0,5.1,29.12,North,351,0.0,0.0,37,0.00,,---,0.00,VWS V14.01,2013-03-17 09:15:00,
2013-03-17 05:20:00,28.0,5.1,29.12,North,351,0.0,0.0,37,0.00,,---,0.00,VWS V14.01,2013-03-17 09:20:00,
2013-03-17 05:25:00,28.0,5.7,29.12,North,351,0.0,0.0,38,0.00,,---,0.00,VWS V14.01,2013-03-17 09:25:00,
2013-03-17 05:30:00,28.0,6.3,29.12,North,351,0.0,0.0,39,0.00,,---,0.00,VWS V14.01,2013-03-17 09:30:00,
2013-03-17 05:35:00,28.0,6.3,29.12,North,351,4.0,4.0,39,0.00,,---,0.00,VWS V14.01,2013-03-17 09:35:00,
2013-03-17 05:40:00,28.0,5.7,29.12,North,351,0.0,0.0,38,0.00,,---,0.00,VWS V14.01,2013-03-17 09:40:00,
2013-03-17 05:45:00,28.0,5.7,29.12,North,351,0.0,0.0,38,0.00,,---,0.00,VWS V14.01,2013-03-17 09:45:00,
2013-03-17 05:50:00,28.0,6.3,29.12,North,351,0.0,0.0,39,0.00,,---,0.00,VWS V14.01,2013-03-17 09:50:00,
2013-03-17 05:55:00,28.0,5.7,29.12,NE,43,0.0,3.6,38,0.00,,---,0.00,VWS V14.01,2013-03-17 09:55:00,
2013-03-17 06:00:00,27.7,3.6,29.15,North,0,3.6,4.0,35,0.00,,---,0.00,VWS V14.01,2013-03-17 10:00:00,
2013-03-17 06:05:00,27.7,3.0,29.15,North,351,0.0,3.6,34,0.00,,---,0.00,VWS V14.01,2013-03-17 10:05:00,
2013-03-17 06:10:00,27.3,2.7,29.15,North,0,3.6,4.5,34,0.00,,---,0.00,VWS V14.01,2013-03-17 10:10:00,
2013-03-17 06:15:00,27.5,2.8,29.15,North,0,0.0,0.0,34,0.00,,---,0.00,VWS V14.01,2013-03-17 10:15:00,
2013-03-17 06:20:00,27.3,3.3,29.15,North,0,4.5,5.4,35,0.00,,---,0.00,VWS V14.01,2013-03-17 10:20:00,
2013-03-17 06:25:00,27.1,3.1,29.15,North,0,5.8,5.8,35,0.00,,---,0.00,VWS V14.01,2013-03-17 10:25:00,
2013-03-17 06:30:00,27.1,3.1,29.15,North,0,3.6,4.5,35,0.00,,---,0.00,VWS V14.01,2013-03-17 10:30:00,
2013-03-17 06:35:00,27.1,3.1,29.15,North,0,5.4,5.4,35,0.00,,---,0.00,VWS V14.01,2013-03-17 10:35:00,
2013-03-17 06:40:00,27.0,3.6,29.15,North,7,0.0,3.6,36,0.00,,---,0.00,VWS V14.01,2013-03-17 10:40:00,
2013-03-17 06:45:00,27.0,3.6,29.15,North,0,3.6,4.9,36,0.00,,---,0.00,VWS V14.01,2013-03-17 10:45:00,
2013-03-17 06:50:00,27.0,3.6,29.15,North,0,2.7,4.5,36,0.00,,---,0.00,VWS V14.01,2013-03-17 10:50:00,
2013-03-17 06:55:00,26.6,3.3,29.15,North,5,3.6,3.6,36,0.00,,---,0.00,VWS V14.01,2013-03-17 10:55:00,
2013-03-17 07:00:00,26.6,2.0,29.18,North,5,3.1,3.6,34,0.00,,---,0.00,VWS V14.01,2013-03-17 11:00:00,
2013-03-17 07:05:00,26.2,1.7,29.18,North,1,0.0,4.0,34,0.00,,---,0.00,VWS V14.01,2013-03-17 11:05:00,
2013-03-17 07:10:00,25.9,0.8,29.18,North,0,4.0,5.4,33,0.00,,---,0.00,VWS V14.01,2013-03-17 11:10:00,
2013-03-17 07:15:00,25.7,0.6,29.18,North,0,3.1,3.1,33,0.00,,---,0.00,VWS V14.01,2013-03-17 11:15:00,
2013-03-17 07:20:00,25.5,1.7,29.18,North,2,3.1,3.1,35,0.00,,---,0.00,VWS V14.01,2013-03-17 11:20:00,
2013-03-17 07:25:00,25.2,0.8,29.18,NNW,342,3.6,4.5,34,0.00,,---,0.00,VWS V14.01,2013-03-17 11:25:00,
2013-03-17 07:31:00,25.5,1.7,29.21,North,351,4.0,4.0,35,0.00,,---,0.00,VWS V14.01,2013-03-17 11:31:00,
2013-03-17 07:36:00,25.3,0.9,29.21,North,351,3.6,4.9,34,0.00,,---,0.00,VWS V14.01,2013-03-17 11:36:00,
2013-03-17 07:42:00,25.3,0.3,29.21,North,351,4.0,4.9,33,0.00,,---,0.00,VWS V14.01,2013-03-17 11:42:00,
2013-03-17 07:47:00,25.5,0.4,29.21,North,351,4.9,5.8,33,0.00,,---,0.00,VWS V14.01,2013-03-17 11:47:00,
2013-03-17 07:52:00,25.5,0.4,29.21,North,351,3.1,5.4,33,0.00,,---,0.00,VWS V14.01,2013-03-17 11:52:00,
2013-03-17 07:58:00,25.7,-0.1,29.21,North,0,4.5,4.9,32,0.00,,---,0.00,VWS V14.01,2013-03-17 11:58:00,
2013-03-17 08:03:00,25.9,0.1,29.21,North,0,0.0,4.0,32,0.00,,---,0.00,VWS V14.01,2013-03-17 12:03:00,
2013-03-17 08:08:00,25.9,0.1,29.21,North,351,4.5,5.8,32,0.00,,---,0.00,VWS V14.01,2013-03-17 12:08:00,
2013-03-17 08:13:00,25.9,-0.6,29.21,North,0,4.0,4.9,31,0.00,,---,0.00,VWS V14.01,2013-03-17 12:13:00,
2013-03-17 08:18:00,26.1,-0.4,29.21,ENE,70,3.1,4.9,31,0.00,,---,0.00,VWS V14.01,2013-03-17 12:18:00,
2013-03-17 08:23:00,26.2,-0.3,29.21,North,11,0.0,4.0,31,0.00,,---,0.00,VWS V14.01,2013-03-17 12:23:00,
2013-03-17 08:28:00,26.4,-0.1,29.21,North,10,2.7,4.0,31,0.00,,---,0.00,VWS V14.01,2013-03-17 12:28:00,
2013-03-17 08:33:00,27.0,0.4,29.21,North,0,3.1,5.8,31,0.00,,---,0.00,VWS V14.01,2013-03-17 12:33:00,
2013-03-17 08:38:00,27.0,-1.0,29.21,North,0,6.9,6.9,29,0.00,,---,0.00,VWS V14.01,2013-03-17 12:38:00,
2013-03-17 08:43:00,27.1,0.5,29.21,North,0,4.5,5.4,31,0.00,,---,0.00,VWS V14.01,2013-03-17 12:43:00,
2013-03-17 08:48:00,27.3,-0.7,29.21,North,351,4.5,4.5,29,0.00,,---,0.00,VWS V14.01,2013-03-17 12:48:00,
2013-03-17 08:53:00,27.5,-2.9,29.21,North,4,0.0,0.0,26,0.00,,---,0.00,VWS V14.01,2013-03-17 12:53:00,
2013-03-17 08:58:00,27.7,-1.2,29.21,NNE,21,0.0,0.0,28,0.00,,---,0.00,VWS V14.01,2013-03-17 12:58:00,
2013-03-17 09:03:00,27.5,-2.9,29.21,North,351,3.1,4.0,26,0.00,,---,0.00,VWS V14.01,2013-03-17 13:03:00,
2013-03-17 09:08:00,27.9,-1.0,29.21,ENE,75,3.1,3.6,28,0.00,,---,0.00,VWS V14.01,2013-03-17 13:08:00,
2013-03-17 09:13:00,28.2,-2.2,29.21,North,8,4.5,4.5,26,0.00,,---,0.00,VWS V14.01,2013-03-17 13:13:00,
2013-03-17 09:18:00,28.6,-1.9,29.23,North,351,3.1,3.6,26,0.00,,---,0.00,VWS V14.01,2013-03-17 13:18:00,
2013-03-17 09:23:00,28.9,-1.6,29.23,North,0,3.1,4.0,26,0.00,,---,0.00,VWS V14.01,2013-03-17 13:23:00,
2013-03-17 09:28:00,29.5,-2.0,29.23,North,4,4.5,4.5,25,0.00,,---,0.00,VWS V14.01,2013-03-17 13:28:00,
2013-03-17 09:33:00,29.5,-2.0,29.23,ENE,58,0.0,4.9,25,0.00,,---,0.00,VWS V14.01,2013-03-17 13:33:00,
2013-03-17 09:39:00,30.0,-1.5,29.23,North,0,0.0,3.6,25,0.00,,---,0.00,VWS V14.01,2013-03-17 13:39:00,
2013-03-17 09:44:00,30.0,-1.5,29.23,North,10,3.1,3.1,25,0.00,,---,0.00,VWS V14.01,2013-03-17 13:44:00,
2013-03-17 09:50:00,30.4,-1.2,29.23,NNE,13,0.0,3.1,25,0.00,,---,0.00,VWS V14.01,2013-03-17 13:50:00,
2013-03-17 09:55:00,31.3,-0.4,29.23,East,81,2.7,4.5,25,0.00,,---,0.00,VWS V14.01,2013-03-17 13:55:00,
2013-03-17 10:00:00,31.8,0.0,29.23,NNE,16,3.6,3.6,25,0.00,,---,0.00,VWS V14.01,2013-03-17 14:00:00,
2013-03-17 10:05:00,31.1,-2.4,29.23,ENE,68,3.6,4.5,23,0.00,,---,0.00,VWS V14.01,2013-03-17 14:05:00,
2013-03-17 10:10:00,31.3,-2.2,29.23,North,10,3.1,3.1,23,0.00,,---,0.00,VWS V14.01,2013-03-17 14:10:00,
2013-03-17 10:15:00,31.3,-2.2,29.23,ESE,108,2.7,3.6,23,0.00,,---,0.00,VWS V14.01,2013-03-17 14:15:00,
2013-03-17 10:20:00,31.5,-2.0,29.23,NE,50,3.6,3.6,23,0.00,,---,0.00,VWS V14.01,2013-03-17 14:20:00,
2013-03-17 10:25:00,31.5,-0.3,29.23,NNE,30,0.0,4.9,25,0.00,,---,0.00,VWS V14.01,2013-03-17 14:25:00,
2013-03-17 10:30:00,31.1,-2.4,29.23,NNW,346,5.4,8.3,23,0.00,,---,0.00,VWS V14.01,2013-03-17 14:30:00,
2013-03-17 10:35:00,31.3,-2.2,29.23,NE,42,2.7,4.0,23,0.00,,---,0.00,VWS V14.01,2013-03-17 14:35:00,
2013-03-17 10:40:00,30.7,-2.7,29.23,North,0,2.7,6.9,23,0.00,,---,0.00,VWS V14.01,2013-03-17 14:40:00,
2013-03-17 10:45:00,31.3,-0.4,29.26,NE,51,3.6,4.5,25,0.00,,---,0.00,VWS V14.01,2013-03-17 14:45:00,
2013-03-17 10:50:00,31.6,-0.1,29.26,North,0,0.0,4.0,25,0.00,,---,0.00,VWS V14.01,2013-03-17 14:50:00,
2013-03-17 10:55:00,31.3,-0.4,29.26,North,351,3.6,4.0,25,0.00,,---,0.00,VWS V14.01,2013-03-17 14:55:00,
2013-03-17 11:00:00,31.1,-2.4,29.26,ENE,74,4.0,4.5,23,0.00,,---,0.00,VWS V14.01,2013-03-17 15:00:00,
2013-03-17 11:05:00,30.6,-2.8,29.26,NNW,347,4.5,4.9,23,0.00,,---,0.00,VWS V14.01,2013-03-17 15:05:00,
2013-03-17 11:10:00,30.6,-2.8,29.26,NNE,18,2.7,4.0,23,0.00,,---,0.00,VWS V14.01,2013-03-17 15:10:00,
2013-03-17 11:15:00,31.3,-0.4,29.26,ENE,62,3.6,4.5,25,0.00,,---,0.00,VWS V14.01,2013-03-17 15:15:00,
2013-03-17 11:20:00,30.9,-2.5,29.26,North,351,4.0,6.7,23,0.00,,---,0.00,VWS V14.01,2013-03-17 15:20:00,
2013-03-17 11:25:00,30.9,-2.5,29.26,North,0,3.1,4.9,23,0.00,,---,0.00,VWS V14.01,2013-03-17 15:25:00,
2013-03-17 11:30:00,30.9,-2.5,29.26,North,351,0.0,4.0,23,0.00,,---,0.00,VWS V14.01,2013-03-17 15:30:00,
2013-03-17 11:35:00,31.1,-2.4,29.26,North,3,3.6,4.0,23,0.00,,---,0.00,VWS V14.01,2013-03-17 15:35:00,
2013-03-17 11:40:00,31.6,-1.9,29.26,NNE,12,0.0,4.9,23,0.00,,---,0.00,VWS V14.01,2013-03-17 15:40:00,
2013-03-17 11:45:00,31.6,-1.9,29.23,NNE,26,0.0,4.0,23,0.00,,---,0.00,VWS V14.01,2013-03-17 15:45:00,
2013-03-17 11:50:00,31.5,-2.0,29.23,North,8,0.0,0.0,23,0.00,,---,0.00,VWS V14.01,2013-03-17 15:50:00,
2013-03-17 11:55:00,31.6,-1.9,29.23,North,0,0.0,5.8,23,0.00,,---,0.00,VWS V14.01,2013-03-17 15:55:00,
2013-03-17 12:00:00,32.0,-1.6,29.23,North,3,0.0,0.0,23,0.00,,---,0.00,VWS V14.01,2013-03-17 16:00:00,
2013-03-17 12:05:00,32.2,-1.4,29.23,NNW,341,0.0,4.5,23,0.00,,---,0.00,VWS V14.01,2013-03-17 16:05:00,
2013-03-17 12:10:00,32.5,-1.1,29.23,NE,36,0.0,0.0,23,0.00,,---,0.00,VWS V14.01,2013-03-17 16:10:00,
2013-03-17 12:15:00,32.7,-1.0,29.23,North,351,3.6,4.5,23,0.00,,---,0.00,VWS V14.01,2013-03-17 16:15:00,
2013-03-17 12:20:00,32.5,-1.1,29.23,NNE,14,0.0,0.0,23,0.00,,---,0.00,VWS V14.01,2013-03-17 16:20:00,
2013-03-17 12:25:00,32.5,-1.1,29.23,NE,37,0.0,0.0,23,0.00,,---,0.00,VWS V14.01,2013-03-17 16:25:00,
2013-03-17 12:31:00,32.9,-0.8,29.23,ENE,75,0.0,3.1,23,0.00,,---,0.00,VWS V14.01,2013-03-17 16:31:00,
2013-03-17 12:36:00,32.5,-1.1,29.23,North,351,3.6,4.5,23,0.00,,---,0.00,VWS V14.01,2013-03-17 16:36:00,
2013-03-17 12:41:00,33.1,-1.6,29.23,NNE,17,2.7,3.6,22,0.00,,---,0.00,VWS V14.01,2013-03-17 16:41:00,
2013-03-17 12:46:00,33.1,-1.6,29.23,North,351,4.5,6.7,22,0.00,,---,0.00,VWS V14.01,2013-03-17 16:46:00,
2013-03-17 12:52:00,33.1,-1.6,29.23,ENE,64,0.0,0.0,22,0.00,,---,0.00,VWS V14.01,2013-03-17 16:52:00,
2013-03-17 12:57:00,33.3,-1.5,29.23,East,87,0.0,4.5,22,0.00,,---,0.00,VWS V14.01,2013-03-17 16:57:00,
2013-03-17 13:02:00,33.4,-1.3,29.23,North,7,2.7,4.9,22,0.00,,---,0.00,VWS V14.01,2013-03-17 17:02:00,
2013-03-17 13:07:00,33.3,-1.5,29.23,NW,304,0.0,4.0,22,0.00,,---,0.00,VWS V14.01,2013-03-17 17:07:00,
2013-03-17 13:12:00,33.1,-1.6,29.23,NNE,20,0.0,0.0,22,0.00,,---,0.00,VWS V14.01,2013-03-17 17:12:00,
2013-03-17 13:17:00,33.3,-1.5,29.23,North,4,0.0,3.1,22,0.00,,---,0.00,VWS V14.01,2013-03-17 17:17:00,
2013-03-17 13:22:00,33.3,-1.5,29.23,NNW,340,3.6,3.6,22,0.00,,---,0.00,VWS V14.01,2013-03-17 17:22:00,
2013-03-17 13:27:00,33.6,-1.2,29.23,North,7,0.0,4.5,22,0.00,,---,0.00,VWS V14.01,2013-03-17 17:27:00,
2013-03-17 13:32:00,33.8,-1.0,29.26,SE,142,0.0,0.0,22,0.00,,---,0.00,VWS V14.01,2013-03-17 17:32:00,
2013-03-17 13:37:00,33.8,-1.0,29.26,NW,322,0.0,0.0,22,0.00,,---,0.00,VWS V14.01,2013-03-17 17:37:00,
2013-03-17 13:43:00,34.3,-0.6,29.26,North,0,0.0,4.9,22,0.00,,---,0.00,VWS V14.01,2013-03-17 17:43:00,
2013-03-17 13:48:00,34.5,-0.4,29.23,North,351,4.5,5.8,22,0.00,,---,0.00,VWS V14.01,2013-03-17 17:48:00,
2013-03-17 13:53:00,34.2,-2.7,29.23,North,2,6.3,6.7,20,0.00,,---,0.00,VWS V14.01,2013-03-17 17:53:00,
2013-03-17 13:58:00,34.0,-2.9,29.23,North,351,3.6,7.8,20,0.00,,---,0.00,VWS V14.01,2013-03-17 17:58:00,
2013-03-17 14:03:00,34.3,-2.6,29.26,North,0,0.0,5.8,20,0.00,,---,0.00,VWS V14.01,2013-03-17 18:03:00,
2013-03-17 14:08:00,34.5,-2.4,29.26,North,0,2.7,4.5,20,0.00,,---,0.00,VWS V14.01,2013-03-17 18:08:00,
2013-03-17 14:13:00,35.1,-3.0,29.26,ENE,65,3.1,5.4,19,0.00,,---,0.00,VWS V14.01,2013-03-17 18:13:00,
2013-03-17 14:18:00,35.4,-2.7,29.23,NE,49,2.7,3.6,19,0.00,,---,0.00,VWS V14.01,2013-03-17 18:18:00,
2013-03-17 14:23:00,35.8,-2.4,29.23,NNE,21,4.5,4.9,19,0.00,,---,0.00,VWS V14.01,2013-03-17 18:23:00,
2013-03-17 14:28:00,35.8,-2.4,29.23,North,0,3.1,4.0,19,0.00,,---,0.00,VWS V14.01,2013-03-17 18:28:00,
2013-03-17 14:33:00,35.8,-2.4,29.23,North,351,4.0,5.4,19,0.00,,---,0.00,VWS V14.01,2013-03-17 18:33:00,
2013-03-17 14:38:00,36.0,-2.3,29.23,NE,56,4.0,6.3,19,0.00,,---,0.00,VWS V14.01,2013-03-17 18:38:00,
2013-03-17 14:43:00,35.8,-2.4,29.23,North,7,4.0,4.0,19,0.00,,---,0.00,VWS V14.01,2013-03-17 18:43:00,
2013-03-17 14:48:00,35.4,-2.7,29.23,North,0,2.7,4.5,19,0.00,,---,0.00,VWS V14.01,2013-03-17 18:48:00,
2013-03-17 14:53:00,35.4,-2.7,29.23,North,5,3.1,6.9,19,0.00,,---,0.00,VWS V14.01,2013-03-17 18:53:00,
2013-03-17 14:58:00,35.4,-2.7,29.23,North,0,3.6,4.0,19,0.00,,---,0.00,VWS V14.01,2013-03-17 18:58:00,
2013-03-17 15:04:00,35.6,-2.6,29.23,North,0,0.0,3.6,19,0.00,,---,0.00,VWS V14.01,2013-03-17 19:04:00,
2013-03-17 15:10:00,36.0,-2.3,29.23,North,10,6.7,6.7,19,0.00,,---,0.00,VWS V14.01,2013-03-17 19:10:00,
2013-03-17 15:15:00,36.0,-2.3,29.23,North,3,0.0,0.0,19,0.00,,---,0.00,VWS V14.01,2013-03-17 19:15:00,
2013-03-17 15:20:00,36.0,-2.3,29.23,North,351,2.7,7.8,19,0.00,,---,0.00,VWS V14.01,2013-03-17 19:20:00,
2013-03-17 15:25:00,35.8,-2.4,29.23,North,2,0.0,4.5,19,0.00,,---,0.00,VWS V14.01,2013-03-17 19:25:00,
2013-03-17 15:30:00,35.8,-2.4,29.23,NNE,12,0.0,0.0,19,0.00,,---,0.00,VWS V14.01,2013-03-17 19:30:00,
2013-03-17 15:35:00,36.1,-2.1,29.23,NE,46,0.0,4.0,19,0.00,,---,0.00,VWS V14.01,2013-03-17 19:35:00,
2013-03-17 15:40:00,36.3,-2.0,29.23,North,351,4.9,4.9,19,0.00,,---,0.00,VWS V14.01,2013-03-17 19:40:00,
2013-03-17 15:45:00,36.3,-2.0,29.23,North,5,3.6,3.6,19,0.00,,---,0.00,VWS V14.01,2013-03-17 19:45:00,
2013-03-17 15:50:00,36.3,-2.0,29.23,ENE,65,0.0,4.0,19,0.00,,---,0.00,VWS V14.01,2013-03-17 19:50:00,
2013-03-17 15:55:00,36.1,-2.1,29.23,NNW,331,3.6,4.9,19,0.00,,---,0.00,VWS V14.01,2013-03-17 19:55:00,
2013-03-17 16:00:00,36.1,-2.1,29.26,North,0,3.6,4.5,19,0.00,,---,0.00,VWS V14.01,2013-03-17 20:00:00,
2013-03-17 16:05:00,36.0,-2.3,29.26,North,0,2.7,4.5,19,0.00,,---,0.00,VWS V14.01,2013-03-17 20:05:00,
2013-03-17 16:10:00,36.0,-2.3,29.26,NNW,343,4.5,4.9,19,0.00,,---,0.00,VWS V14.01,2013-03-17 20:10:00,
2013-03-17 16:16:00,36.0,-2.3,29.26,North,3,5.8,5.8,19,0.00,,---,0.00,VWS V14.01,2013-03-17 20:16:00,
2013-03-17 16:21:00,36.0,-2.3,29.26,NE,39,2.7,4.5,19,0.00,,---,0.00,VWS V14.01,2013-03-17 20:21:00,
2013-03-17 16:27:00,36.0,-2.3,29.26,North,351,6.3,7.4,19,0.00,,---,0.00,VWS V14.01,2013-03-17 20:27:00,
2013-03-17 16:32:00,35.8,-2.4,29.26,North,10,0.0,3.6,19,0.00,,---,0.00,VWS V14.01,2013-03-17 20:32:00,
2013-03-17 16:37:00,36.0,-2.3,29.26,ENE,62,0.0,3.1,19,0.00,,---,0.00,VWS V14.01,2013-03-17 20:37:00,
2013-03-17 16:43:00,36.1,-2.1,29.26,NE,55,0.0,0.0,19,0.00,,---,0.00,VWS V14.01,2013-03-17 20:43:00,
2013-03-17 16:49:00,36.1,-2.1,29.26,North,351,0.0,0.0,19,0.00,,---,0.00,VWS V14.01,2013-03-17 20:49:00,
2013-03-17 16:54:00,36.0,-2.3,29.26,North,0,4.0,4.9,19,0.00,,---,0.00,VWS V14.01,2013-03-17 20:54:00,
2013-03-17 16:59:00,35.6,-2.6,29.26,North,1,3.6,4.5,19,0.00,,---,0.00,VWS V14.01,2013-03-17 20:59:00,
2013-03-17 17:04:00,35.4,-2.7,29.26,North,351,3.6,4.5,19,0.00,,---,0.00,VWS V14.01,2013-03-17 21:04:00,
2013-03-17 17:09:00,35.4,-2.7,29.26,North,0,3.1,4.9,19,0.00,,---,0.00,VWS V14.01,2013-03-17 21:09:00,
2013-03-17 17:14:00,35.4,-2.7,29.26,North,351,3.6,3.6,19,0.00,,---,0.00,VWS V14.01,2013-03-17 21:14:00,
2013-03-17 17:19:00,35.2,-2.9,29.26,North,4,0.0,4.0,19,0.00,,---,0.00,VWS V14.01,2013-03-17 21:19:00,
2013-03-17 17:24:00,35.1,-3.0,29.26,North,0,3.6,5.4,19,0.00,,---,0.00,VWS V14.01,2013-03-17 21:24:00,
2013-03-17 17:29:00,35.1,-3.0,29.26,North,4,3.1,4.9,19,0.00,,---,0.00,VWS V14.01,2013-03-17 21:29:00,
2013-03-17 17:35:00,34.7,-3.3,29.26,North,0,4.9,5.8,19,0.00,,---,0.00,VWS V14.01,2013-03-17 21:35:00,
2013-03-17 17:40:00,34.7,-3.3,29.26,NNE,16,0.0,3.1,19,0.00,,---,0.00,VWS V14.01,2013-03-17 21:40:00,
2013-03-17 17:45:00,34.7,-3.3,29.29,North,0,0.0,0.0,19,0.00,,---,0.00,VWS V14.01,2013-03-17 21:45:00,
2013-03-17 17:50:00,34.7,-2.3,29.29,North,2,3.6,6.7,20,0.00,,---,0.00,VWS V14.01,2013-03-17 21:50:00,
2013-03-17 17:55:00,34.5,-2.4,29.29,North,351,4.9,5.4,20,0.00,,---,0.00,VWS V14.01,2013-03-17 21:55:00,
2013-03-17 18:02:00,34.3,-2.6,29.29,North,351,4.9,5.4,20,0.00,,---,0.00,VWS V14.01,2013-03-17 22:02:00,
2013-03-17 18:08:00,34.3,-2.6,29.29,North,0,4.0,4.0,20,0.00,,---,0.00,VWS V14.01,2013-03-17 22:08:00,
2013-03-17 18:13:00,34.2,-2.7,29.29,North,0,3.6,3.6,20,0.00,,---,0.00,VWS V14.01,2013-03-17 22:13:00,
2013-03-17 18:18:00,34.2,-2.7,29.29,NNW,344,3.6,4.9,20,0.00,,---,0.00,VWS V14.01,2013-03-17 22:18:00,
2013-03-17 18:23:00,34.0,-2.9,29.29,NNW,347,4.9,5.8,20,0.00,,---,0.00,VWS V14.01,2013-03-17 22:23:00,
2013-03-17 18:28:00,33.8,-3.0,29.29,North,351,4.9,4.9,20,0.00,,---,0.00,VWS V14.01,2013-03-17 22:28:00,
2013-03-17 18:34:00,33.6,-3.2,29.29,North,6,3.6,4.5,20,0.00,,---,0.00,VWS V14.01,2013-03-17 22:34:00,
2013-03-17 18:39:00,33.6,-3.2,29.29,NNW,341,3.1,4.0,20,0.00,,---,0.00,VWS V14.01,2013-03-17 22:39:00,
2013-03-17 18:44:00,33.4,-3.3,29.29,NNW,341,3.6,4.0,20,0.00,,---,0.00,VWS V14.01,2013-03-17 22:44:00,
2013-03-17 18:49:00,33.3,-3.5,29.32,NNW,343,3.6,4.0,20,0.00,,---,0.00,VWS V14.01,2013-03-17 22:49:00,
2013-03-17 18:54:00,33.1,-3.6,29.32,North,351,5.4,5.8,20,0.00,,---,0.00,VWS V14.01,2013-03-17 22:54:00,
2013-03-17 18:59:00,33.3,-3.5,29.32,North,3,5.4,6.7,20,0.00,,---,0.00,VWS V14.01,2013-03-17 22:59:00,
2013-03-17 19:04:00,33.1,-3.6,29.32,North,0,5.4,5.4,20,0.00,,---,0.00,VWS V14.01,2013-03-17 23:04:00,
2013-03-17 19:09:00,33.1,-3.6,29.32,North,0,4.0,4.5,20,0.00,,---,0.00,VWS V14.01,2013-03-17 23:09:00,
2013-03-17 19:14:00,32.9,-3.8,29.32,North,351,3.6,3.6,20,0.00,,---,0.00,VWS V14.01,2013-03-17 23:14:00,
2013-03-17 19:20:00,32.7,-3.9,29.32,North,351,4.5,4.5,20,0.00,,---,0.00,VWS V14.01,2013-03-17 23:20:00,
2013-03-17 19:26:00,32.7,-3.9,29.32,North,0,4.9,4.9,20,0.00,,---,0.00,VWS V14.01,2013-03-17 23:26:00,
2013-03-17 19:31:00,32.7,-3.9,29.35,NNW,338,4.0,4.5,20,0.00,,---,0.00,VWS V14.01,2013-03-17 23:31:00,
2013-03-17 19:36:00,32.5,-4.1,29.35,North,351,4.5,5.4,20,0.00,,---,0.00,VWS V14.01,2013-03-17 23:36:00,
2013-03-17 19:41:00,32.5,-4.1,29.35,North,351,2.7,5.4,20,0.00,,---,0.00,VWS V14.01,2013-03-17 23:41:00,
2013-03-17 19:47:00,32.4,-4.2,29.35,North,0,4.0,4.5,20,0.00,,---,0.00,VWS V14.01,2013-03-17 23:47:00,
2013-03-17 19:52:00,32.2,-4.4,29.35,North,0,4.5,4.9,20,0.00,,---,0.00,VWS V14.01,2013-03-17 23:52:00,
2013-03-17 19:57:00,32.2,-4.4,29.35,NNW,347,4.5,4.9,20,0.00,,---,0.00,VWS V14.01,2013-03-17 23:57:00,
2013-03-17 20:02:00,32.2,-4.4,29.35,North,0,4.9,4.9,20,0.00,,---,0.00,VWS V14.01,2013-03-18 00:02:00,
2013-03-17 20:08:00,32.2,-4.4,29.35,North,351,4.9,5.4,20,0.00,,---,0.00,VWS V14.01,2013-03-18 00:08:00,
2013-03-17 20:13:00,32.0,-4.5,29.35,North,0,4.5,4.5,20,0.00,,---,0.00,VWS V14.01,2013-03-18 00:13:00,
2013-03-17 20:18:00,32.0,-4.5,29.35,North,0,0.0,4.5,20,0.00,,---,0.00,VWS V14.01,2013-03-18 00:18:00,
2013-03-17 20:23:00,31.8,-4.7,29.35,North,351,4.0,4.9,20,0.00,,---,0.00,VWS V14.01,2013-03-18 00:23:00,
2013-03-17 20:28:00,31.6,-4.8,29.35,North,351,4.9,4.9,20,0.00,,---,0.00,VWS V14.01,2013-03-18 00:28:00,
2013-03-17 20:33:00,31.5,-5.0,29.35,North,351,3.6,4.5,20,0.00,,---,0.00,VWS V14.01,2013-03-18 00:33:00,
2013-03-17 20:38:00,31.5,-5.0,29.35,North,351,4.0,5.4,20,0.00,,---,0.00,VWS V14.01,2013-03-18 00:38:00,
2013-03-17 20:43:00,31.3,-5.1,29.35,North,351,4.5,4.9,20,0.00,,---,0.00,VWS V14.01,2013-03-18 00:43:00,
2013-03-17 20:48:00,31.3,-5.1,29.38,North,351,0.0,4.5,20,0.00,,---,0.00,VWS V14.01,2013-03-18 00:48:00,
2013-03-17 20:53:00,31.1,-5.3,29.38,North,351,2.7,4.0,20,0.00,,---,0.00,VWS V14.01,2013-03-18 00:53:00,
2013-03-17 20:58:00,30.7,-5.6,29.38,North,2,0.0,3.6,20,0.00,,---,0.00,VWS V14.01,2013-03-18 00:58:00,
2013-03-17 21:03:00,30.6,-5.7,29.38,NNW,338,3.6,4.5,20,0.00,,---,0.00,VWS V14.01,2013-03-18 01:03:00,
2013-03-17 21:08:00,30.7,-5.6,29.38,NNW,347,4.5,4.9,20,0.00,,---,0.00,VWS V14.01,2013-03-18 01:08:00,
2013-03-17 21:14:00,30.6,-5.7,29.38,NNW,347,4.5,5.4,20,0.00,,---,0.00,VWS V14.01,2013-03-18 01:14:00,
2013-03-17 21:19:00,30.4,-5.9,29.38,North,351,3.1,4.5,20,0.00,,---,0.00,VWS V14.01,2013-03-18 01:19:00,
2013-03-17 21:24:00,30.4,-5.9,29.38,North,351,2.7,3.6,20,0.00,,---,0.00,VWS V14.01,2013-03-18 01:24:00,
2013-03-17 21:29:00,30.2,-6.0,29.38,North,351,0.0,4.5,20,0.00,,---,0.00,VWS V14.01,2013-03-18 01:29:00,
2013-03-17 21:34:00,30.0,-6.2,29.41,North,351,4.0,5.4,20,0.00,,---,0.00,VWS V14.01,2013-03-18 01:34:00,
2013-03-17 21:39:00,30.0,-6.2,29.41,North,351,4.0,4.5,20,0.00,,---,0.00,VWS V14.01,2013-03-18 01:39:00,
2013-03-17 21:44:00,29.8,-6.3,29.41,North,351,4.0,4.5,20,0.00,,---,0.00,VWS V14.01,2013-03-18 01:44:00,
2013-03-17 21:49:00,29.8,-6.3,29.41,North,0,4.0,4.5,20,0.00,,---,0.00,VWS V14.01,2013-03-18 01:49:00,
2013-03-17 21:54:00,29.7,-6.5,29.41,NNW,344,0.0,4.5,20,0.00,,---,0.00,VWS V14.01,2013-03-18 01:54:00,
2013-03-17 21:59:00,29.7,-6.5,29.41,North,0,4.0,4.0,20,0.00,,---,0.00,VWS V14.01,2013-03-18 01:59:00,
2013-03-17 22:04:00,29.7,-6.5,29.41,North,351,4.0,4.5,20,0.00,,---,0.00,VWS V14.01,2013-03-18 02:04:00,
2013-03-17 22:10:00,29.5,-6.6,29.41,North,351,4.5,4.9,20,0.00,,---,0.00,VWS V14.01,2013-03-18 02:10:00,
2013-03-17 22:15:00,29.3,-5.8,29.41,North,8,4.5,4.9,21,0.00,,---,0.00,VWS V14.01,2013-03-18 02:15:00,
2013-03-17 22:20:00,29.1,-5.9,29.41,North,351,3.6,4.9,21,0.00,,---,0.00,VWS V14.01,2013-03-18 02:20:00,
2013-03-17 22:25:00,29.1,-5.9,29.41,NNW,336,4.0,5.4,21,0.00,,---,0.00,VWS V14.01,2013-03-18 02:25:00,
2013-03-17 22:30:00,28.9,-6.1,29.44,North,351,3.1,4.5,21,0.00,,---,0.00,VWS V14.01,2013-03-18 02:30:00,
2013-03-17 22:35:00,28.9,-6.1,29.44,North,351,4.5,4.9,21,0.00,,---,0.00,VWS V14.01,2013-03-18 02:35:00,
2013-03-17 22:40:00,28.9,-6.1,29.44,North,351,4.5,4.9,21,0.00,,---,0.00,VWS V14.01,2013-03-18 02:40:00,
2013-03-17 22:45:00,28.8,-6.2,29.44,North,351,5.8,6.3,21,0.00,,---,0.00,VWS V14.01,2013-03-18 02:45:00,
2013-03-17 22:50:00,28.6,-6.4,29.44,North,0,4.9,4.9,21,0.00,,---,0.00,VWS V14.01,2013-03-18 02:50:00,
2013-03-17 22:55:00,28.6,-6.4,29.44,North,351,4.5,6.3,21,0.00,,---,0.00,VWS V14.01,2013-03-18 02:55:00,
2013-03-17 23:00:00,28.4,-6.5,29.44,North,0,4.5,5.8,21,0.00,,---,0.00,VWS V14.01,2013-03-18 03:00:00,
2013-03-17 23:05:00,28.4,-6.5,29.44,North,0,5.8,5.8,21,0.00,,---,0.00,VWS V14.01,2013-03-18 03:05:00,
2013-03-17 23:10:00,28.2,-6.7,29.44,North,351,3.6,4.5,21,0.00,,---,0.00,VWS V14.01,2013-03-18 03:10:00,
2013-03-17 23:16:00,28.2,-6.7,29.44,North,4,3.1,4.0,21,0.00,,---,0.00,VWS V14.01,2013-03-18 03:16:00,
2013-03-17 23:22:00,28.0,-6.8,29.44,North,351,3.6,5.4,21,0.00,,---,0.00,VWS V14.01,2013-03-18 03:22:00,
2013-03-17 23:27:00,28.0,-6.8,29.44,North,351,4.0,5.4,21,0.00,,---,0.00,VWS V14.01,2013-03-18 03:27:00,
2013-03-17 23:32:00,27.9,-7.0,29.44,North,351,4.9,4.9,21,0.00,,---,0.00,VWS V14.01,2013-03-18 03:32:00,
2013-03-17 23:37:00,27.7,-7.2,29.44,North,351,3.1,4.5,21,0.00,,---,0.00,VWS V14.01,2013-03-18 03:37:00,
2013-03-17 23:43:00,27.5,-7.3,29.44,North,7,3.1,4.5,21,0.00,,---,0.00,VWS V14.01,2013-03-18 03:43:00,
2013-03-17 23:48:00,27.5,-7.3,29.44,North,351,4.0,4.9,21,0.00,,---,0.00,VWS V14.01,2013-03-18 03:48:00,
2013-03-17 23:53:00,27.3,-7.4,29.44,North,351,4.0,5.4,21,0.00,,---,0.00,VWS V14.01,2013-03-18 03:53:00,
2013-03-17 23:58:00,27.1,-7.6,29.44,North,7,3.1,5.4,21,0.00,,---,0.00,VWS V14.01,2013-03-18 03:58:00,